Impacts TAF Board
For situational awareness. Not to be used for flight planning purposes.
IDs:

KBOS - Boston/Logan Intl, MA, US

Issued at 1455 UTC 16 Feb 2019
Updated at 1533 UTC 16 Feb 2019
Potential Impact None Slight Moderate High
Time<<17/04Z 17/05Z 17/06Z 17/07Z 17/08Z 17/09Z 17/10Z 17/11Z 17/12Z 17/13Z 17/14Z 17/15Z 17/16Z>>
Type PRVL PRVL PRVL PRVL PRVL PRVL PRVL PRVL PRVL PRVL PRVL PRVL PRVL
VIS >6 >6 >6 >6 >6 >6 >6 >6 >6 >6 >6 >6 >6
CIG -- -- -- -- -- -- -- -- -- -- -- -- --
Cover FEW FEW FEW FEW FEW FEW FEW FEW FEW FEW FEW FEW FEW
FltCat VFR VFR VFR VFR VFR VFR VFR VFR VFR VFR VFR VFR VFR
WX -- -- -- -- -- -- -- -- -- -- -- -- --
WDir 310 310 310 310 310 310 310 310 310 310 310 310 310
WSpd 10 10 10 10 10 10 10 10 10 10 10 10 10
WGst -- -- -- -- -- -- -- -- -- -- -- -- --
Raw TAF
KBOS 161455Z 1615/1718 30010G17KT P6SM FEW040
  FM162100 31010KT P6SM FEW040


METAR Board
Radar Display
Forecast Discussion
For situational awareness. Not to be used for flight planning purposes.